TimeEST,TemperatureF,Dew PointF,Humidity,Sea Level PressureIn,VisibilityMPH,Wind Direction,Wind SpeedMPH,Gust SpeedMPH,PrecipitationIn,Events,Conditions,WindDirDegrees,DateUTC
12:51 AM,30.0,26.1,85,30.53,3.0,NE,4.6,-,N/A,,Clear,40,2012-11-17 05:51:00
1:51 AM,28.9,26.1,89,30.53,3.0,ENE,4.6,-,N/A,,Clear,60,2012-11-17 06:51:00
2:51 AM,28.0,24.1,85,30.54,4.0,East,4.6,-,N/A,,Clear,90,2012-11-17 07:51:00
3:51 AM,28.0,24.1,85,30.54,3.0,ENE,6.9,-,N/A,,Clear,60,2012-11-17 08:51:00
4:51 AM,28.0,24.1,85,30.56,3.0,NE,6.9,-,N/A,,Clear,50,2012-11-17 09:51:00
5:51 AM,27.0,23.0,85,30.57,3.0,NE,6.9,-,N/A,,Clear,50,2012-11-17 10:51:00
6:51 AM,26.1,23.0,88,30.59,3.0,NE,4.6,-,N/A,,Clear,50,2012-11-17 11:51:00
7:51 AM,34.3,28.0,78,30.60,3.0,East,5.8,-,N/A,,Haze,80,2012-11-17 12:51:00
8:51 AM,38.3,23.5,55,30.61,3.0,East,4.6,-,N/A,,Haze,100,2012-11-17 13:51:00
9:51 AM,44.8,22.3,41,30.62,6.0,East,5.8,-,N/A,,Haze,90,2012-11-17 14:51:00
10:51 AM,46.4,32.0,57,30.60,7.0,SE,5.8,-,N/A,,Scattered Clouds,130,2012-11-17 15:51:00
11:51 AM,50.0,32.0,50,30.61,7.0,East,4.6,-,N/A,,Scattered Clouds,90,2012-11-17 16:51:00
12:51 PM,53.1,30.0,41,30.59,7.0,NE,6.9,-,N/A,,Scattered Clouds,50,2012-11-17 17:51:00
1:51 PM,53.1,28.0,38,30.58,8.0,East,9.2,-,N/A,,Scattered Clouds,100,2012-11-17 18:51:00
2:51 PM,53.1,28.9,40,30.57,8.0,East,5.8,-,N/A,,Scattered Clouds,80,2012-11-17 19:51:00
3:51 PM,53.1,30.0,41,30.56,8.0,East,6.9,-,N/A,,Scattered Clouds,80,2012-11-17 20:51:00
4:51 PM,48.0,28.9,48,30.57,7.0,East,5.8,-,N/A,,Partly Cloudy,80,2012-11-17 21:51:00
5:51 PM,45.0,28.0,52,30.58,8.0,ENE,5.8,-,N/A,,Partly Cloudy,60,2012-11-17 22:51:00
6:51 PM,42.8,28.4,57,30.54,8.0,NE,5.8,-,N/A,,Partly Cloudy,50,2012-11-17 23:51:00
7:51 PM,42.1,28.0,58,30.57,8.0,ENE,5.8,-,N/A,,Clear,70,2012-11-18 00:51:00
8:51 PM,41.0,28.0,60,30.57,8.0,ENE,5.8,-,N/A,,Clear,70,2012-11-18 01:51:00
9:51 PM,39.9,28.0,63,30.56,7.0,ENE,8.1,-,N/A,,Clear,70,2012-11-18 02:51:00
10:51 PM,37.9,28.0,68,30.55,7.0,ENE,8.1,-,N/A,,Clear,70,2012-11-18 03:51:00
11:51 PM,37.9,28.0,68,30.53,7.0,ENE,8.1,-,N/A,,Partly Cloudy,70,2012-11-18 04:51:00